sensor_id;sensor_type;location;lat;lon;timestamp;temperature;humidity
14908;DHT22;7545;52.092;7.006;2024-02-26T00:00:40;5.60;99.90
14908;DHT22;7545;52.092;7.006;2024-02-26T00:03:06;5.60;99.90
14908;DHT22;7545;52.092;7.006;2024-02-26T00:05:31;5.60;99.90
14908;DHT22;7545;52.092;7.006;2024-02-26T00:07:57;5.60;99.90
14908;DHT22;7545;52.092;7.006;2024-02-26T00:10:23;5.60;99.90
14908;DHT22;7545;52.092;7.006;2024-02-26T00:12:49;5.60;99.90
14908;DHT22;7545;52.092;7.006;2024-02-26T00:15:15;5.60;99.90
14908;DHT22;7545;52.092;7.006;2024-02-26T00:17:40;5.60;99.90
14908;DHT22;7545;52.092;7.006;2024-02-26T00:20:06;5.60;99.90
14908;DHT22;7545;52.092;7.006;2024-02-26T00:22:35;5.60;99.90
14908;DHT22;7545;52.092;7.006;2024-02-26T00:25:01;5.60;99.90
14908;DHT22;7545;52.092;7.006;2024-02-26T00:27:26;5.60;99.90
14908;DHT22;7545;52.092;7.006;2024-02-26T00:29:52;5.60;99.90
14908;DHT22;7545;52.092;7.006;2024-02-26T00:32:17;5.60;99.90
14908;DHT22;7545;52.092;7.006;2024-02-26T00:34:43;5.60;99.90
14908;DHT22;7545;52.092;7.006;2024-02-26T00:37:09;5.60;99.90
14908;DHT22;7545;52.092;7.006;2024-02-26T00:39:35;5.50;99.90
14908;DHT22;7545;52.092;7.006;2024-02-26T00:42:00;5.50;99.90
14908;DHT22;7545;52.092;7.006;2024-02-26T00:44:26;5.50;99.90
14908;DHT22;7545;52.092;7.006;2024-02-26T00:46:51;5.60;99.90
14908;DHT22;7545;52.092;7.006;2024-02-26T00:49:17;5.50;99.90
14908;DHT22;7545;52.092;7.006;2024-02-26T00:51:42;5.50;99.90
14908;DHT22;7545;52.092;7.006;2024-02-26T00:54:08;5.50;99.90
14908;DHT22;7545;52.092;7.006;2024-02-26T00:56:33;5.50;99.90
14908;DHT22;7545;52.092;7.006;2024-02-26T00:58:59;5.50;99.90
14908;DHT22;7545;52.092;7.006;2024-02-26T01:01:24;5.50;99.90
14908;DHT22;7545;52.092;7.006;2024-02-26T01:03:50;5.50;99.90
14908;DHT22;7545;52.092;7.006;2024-02-26T01:06:15;5.50;99.90
14908;DHT22;7545;52.092;7.006;2024-02-26T01:08:41;5.50;99.90
14908;DHT22;7545;52.092;7.006;2024-02-26T01:11:07;5.50;99.90
14908;DHT22;7545;52.092;7.006;2024-02-26T01:13:33;5.50;99.90
14908;DHT22;7545;52.092;7.006;2024-02-26T01:15:58;5.60;99.90
14908;DHT22;7545;52.092;7.006;2024-02-26T01:18:24;5.50;99.90
14908;DHT22;7545;52.092;7.006;2024-02-26T01:20:50;5.50;99.90
14908;DHT22;7545;52.092;7.006;2024-02-26T01:23:15;5.50;99.90
14908;DHT22;7545;52.092;7.006;2024-02-26T01:25:41;5.50;99.90
14908;DHT22;7545;52.092;7.006;2024-02-26T01:28:08;5.50;99.90
14908;DHT22;7545;52.092;7.006;2024-02-26T01:30:33;5.50;99.90
14908;DHT22;7545;52.092;7.006;2024-02-26T01:32:59;5.50;99.90
14908;DHT22;7545;52.092;7.006;2024-02-26T01:35:24;5.50;99.90
14908;DHT22;7545;52.092;7.006;2024-02-26T01:37:50;5.50;99.90
14908;DHT22;7545;52.092;7.006;2024-02-26T01:40:15;5.50;99.90
14908;DHT22;7545;52.092;7.006;2024-02-26T01:42:45;5.50;99.90
14908;DHT22;7545;52.092;7.006;2024-02-26T01:45:15;5.50;99.90
14908;DHT22;7545;52.092;7.006;2024-02-26T01:47:41;5.50;99.90
14908;DHT22;7545;52.092;7.006;2024-02-26T01:50:08;5.50;99.90
14908;DHT22;7545;52.092;7.006;2024-02-26T01:52:34;5.50;99.90
14908;DHT22;7545;52.092;7.006;2024-02-26T01:54:59;5.50;99.90
14908;DHT22;7545;52.092;7.006;2024-02-26T01:57:27;5.60;99.90
14908;DHT22;7545;52.092;7.006;2024-02-26T01:59:53;5.60;99.90
14908;DHT22;7545;52.092;7.006;2024-02-26T02:02:19;5.60;99.90
14908;DHT22;7545;52.092;7.006;2024-02-26T02:04:44;5.60;99.90
14908;DHT22;7545;52.092;7.006;2024-02-26T02:07:10;5.60;99.90
14908;DHT22;7545;52.092;7.006;2024-02-26T02:09:36;5.60;99.90
14908;DHT22;7545;52.092;7.006;2024-02-26T02:12:02;5.60;99.90
14908;DHT22;7545;52.092;7.006;2024-02-26T02:14:28;5.60;99.90
14908;DHT22;7545;52.092;7.006;2024-02-26T02:16:53;5.60;99.90
14908;DHT22;7545;52.092;7.006;2024-02-26T02:19:19;5.60;99.90
14908;DHT22;7545;52.092;7.006;2024-02-26T02:21:44;5.60;99.90
14908;DHT22;7545;52.092;7.006;2024-02-26T02:24:10;5.70;99.90
14908;DHT22;7545;52.092;7.006;2024-02-26T02:26:35;5.60;99.90
14908;DHT22;7545;52.092;7.006;2024-02-26T02:29:02;5.70;99.90
14908;DHT22;7545;52.092;7.006;2024-02-26T02:31:28;5.70;99.90
14908;DHT22;7545;52.092;7.006;2024-02-26T02:33:53;5.70;99.90
14908;DHT22;7545;52.092;7.006;2024-02-26T02:36:19;5.70;99.90
14908;DHT22;7545;52.092;7.006;2024-02-26T02:38:51;5.70;99.90
14908;DHT22;7545;52.092;7.006;2024-02-26T02:41:17;5.70;99.90
14908;DHT22;7545;52.092;7.006;2024-02-26T02:43:43;5.70;99.90
14908;DHT22;7545;52.092;7.006;2024-02-26T02:46:09;5.70;99.90
14908;DHT22;7545;52.092;7.006;2024-02-26T02:48:36;5.70;99.90
14908;DHT22;7545;52.092;7.006;2024-02-26T02:51:02;5.70;99.90
14908;DHT22;7545;52.092;7.006;2024-02-26T02:53:27;5.70;99.90
14908;DHT22;7545;52.092;7.006;2024-02-26T02:55:53;5.70;99.90
14908;DHT22;7545;52.092;7.006;2024-02-26T02:58:18;5.70;99.90
14908;DHT22;7545;52.092;7.006;2024-02-26T03:00:44;5.70;99.90
14908;DHT22;7545;52.092;7.006;2024-02-26T03:03:09;5.70;99.90
14908;DHT22;7545;52.092;7.006;2024-02-26T03:05:35;5.70;99.90
14908;DHT22;7545;52.092;7.006;2024-02-26T03:08:00;5.60;99.90
14908;DHT22;7545;52.092;7.006;2024-02-26T03:10:26;5.70;99.90
14908;DHT22;7545;52.092;7.006;2024-02-26T03:12:51;5.70;99.90
14908;DHT22;7545;52.092;7.006;2024-02-26T03:15:17;5.70;99.90
14908;DHT22;7545;52.092;7.006;2024-02-26T03:17:42;5.70;99.90
14908;DHT22;7545;52.092;7.006;2024-02-26T03:20:09;5.70;99.90
14908;DHT22;7545;52.092;7.006;2024-02-26T03:22:35;5.70;99.90
14908;DHT22;7545;52.092;7.006;2024-02-26T03:25:01;5.70;99.90
14908;DHT22;7545;52.092;7.006;2024-02-26T03:27:26;5.70;99.90
14908;DHT22;7545;52.092;7.006;2024-02-26T03:29:52;5.60;99.90
14908;DHT22;7545;52.092;7.006;2024-02-26T03:32:18;5.70;99.90
14908;DHT22;7545;52.092;7.006;2024-02-26T03:34:43;5.70;99.90
14908;DHT22;7545;52.092;7.006;2024-02-26T03:37:09;5.70;99.90
14908;DHT22;7545;52.092;7.006;2024-02-26T03:39:36;5.60;99.90
14908;DHT22;7545;52.092;7.006;2024-02-26T03:42:02;5.70;99.90
14908;DHT22;7545;52.092;7.006;2024-02-26T03:44:27;5.70;99.90
14908;DHT22;7545;52.092;7.006;2024-02-26T03:46:53;5.70;99.90
14908;DHT22;7545;52.092;7.006;2024-02-26T03:49:18;5.70;99.90
14908;DHT22;7545;52.092;7.006;2024-02-26T03:51:44;5.70;99.90
14908;DHT22;7545;52.092;7.006;2024-02-26T03:54:10;5.60;99.90
14908;DHT22;7545;52.092;7.006;2024-02-26T03:56:35;5.70;99.90
14908;DHT22;7545;52.092;7.006;2024-02-26T03:59:01;5.70;99.90
14908;DHT22;7545;52.092;7.006;2024-02-26T04:01:27;5.70;99.90
14908;DHT22;7545;52.092;7.006;2024-02-26T04:03:53;5.70;99.90
14908;DHT22;7545;52.092;7.006;2024-02-26T04:06:19;5.70;99.90
14908;DHT22;7545;52.092;7.006;2024-02-26T04:08:46;5.70;99.90
14908;DHT22;7545;52.092;7.006;2024-02-26T04:11:12;5.70;99.90
14908;DHT22;7545;52.092;7.006;2024-02-26T04:13:38;5.70;99.90
14908;DHT22;7545;52.092;7.006;2024-02-26T04:16:05;5.70;99.90
14908;DHT22;7545;52.092;7.006;2024-02-26T04:18:34;5.70;99.90
14908;DHT22;7545;52.092;7.006;2024-02-26T04:20:59;5.70;99.90
14908;DHT22;7545;52.092;7.006;2024-02-26T04:23:25;5.70;99.90
14908;DHT22;7545;52.092;7.006;2024-02-26T04:25:50;5.70;99.90
14908;DHT22;7545;52.092;7.006;2024-02-26T04:28:18;5.70;99.90
14908;DHT22;7545;52.092;7.006;2024-02-26T04:30:46;5.70;99.90
14908;DHT22;7545;52.092;7.006;2024-02-26T04:33:12;5.70;99.90
14908;DHT22;7545;52.092;7.006;2024-02-26T04:35:37;5.70;99.90
14908;DHT22;7545;52.092;7.006;2024-02-26T04:38:03;5.70;99.90
14908;DHT22;7545;52.092;7.006;2024-02-26T04:40:29;5.70;99.90
14908;DHT22;7545;52.092;7.006;2024-02-26T04:42:54;5.70;99.90
14908;DHT22;7545;52.092;7.006;2024-02-26T04:45:20;5.70;99.90
14908;DHT22;7545;52.092;7.006;2024-02-26T04:47:46;5.70;99.90
14908;DHT22;7545;52.092;7.006;2024-02-26T04:50:12;5.70;99.90
14908;DHT22;7545;52.092;7.006;2024-02-26T04:52:37;5.70;99.90
14908;DHT22;7545;52.092;7.006;2024-02-26T04:55:03;5.70;99.90
14908;DHT22;7545;52.092;7.006;2024-02-26T04:57:29;5.70;99.90
14908;DHT22;7545;52.092;7.006;2024-02-26T04:59:54;5.70;99.90
14908;DHT22;7545;52.092;7.006;2024-02-26T05:02:21;5.70;99.90
14908;DHT22;7545;52.092;7.006;2024-02-26T05:04:46;5.70;99.90
14908;DHT22;7545;52.092;7.006;2024-02-26T05:07:12;5.70;99.90
14908;DHT22;7545;52.092;7.006;2024-02-26T05:09:37;5.70;99.90
14908;DHT22;7545;52.092;7.006;2024-02-26T05:12:03;5.70;99.90
14908;DHT22;7545;52.092;7.006;2024-02-26T05:14:29;5.70;99.90
14908;DHT22;7545;52.092;7.006;2024-02-26T05:16:54;5.70;99.90
14908;DHT22;7545;52.092;7.006;2024-02-26T05:19:21;5.80;99.90
14908;DHT22;7545;52.092;7.006;2024-02-26T05:21:46;5.80;99.90
14908;DHT22;7545;52.092;7.006;2024-02-26T05:24:14;5.80;99.90
14908;DHT22;7545;52.092;7.006;2024-02-26T05:26:41;5.70;99.90
14908;DHT22;7545;52.092;7.006;2024-02-26T05:29:06;5.80;99.90
14908;DHT22;7545;52.092;7.006;2024-02-26T05:31:32;5.70;99.90
14908;DHT22;7545;52.092;7.006;2024-02-26T05:33:57;5.70;99.90
14908;DHT22;7545;52.092;7.006;2024-02-26T05:36:23;5.70;99.90
14908;DHT22;7545;52.092;7.006;2024-02-26T05:38:49;5.80;99.90
14908;DHT22;7545;52.092;7.006;2024-02-26T05:41:16;5.80;99.90
14908;DHT22;7545;52.092;7.006;2024-02-26T05:43:42;5.70;99.90
14908;DHT22;7545;52.092;7.006;2024-02-26T05:46:07;5.70;99.90
14908;DHT22;7545;52.092;7.006;2024-02-26T05:48:34;5.70;99.90
14908;DHT22;7545;52.092;7.006;2024-02-26T05:50:59;5.80;99.90
14908;DHT22;7545;52.092;7.006;2024-02-26T05:53:25;5.70;99.90
14908;DHT22;7545;52.092;7.006;2024-02-26T05:55:50;5.70;99.90
14908;DHT22;7545;52.092;7.006;2024-02-26T05:58:16;5.70;99.90
14908;DHT22;7545;52.092;7.006;2024-02-26T06:00:41;5.70;99.90
14908;DHT22;7545;52.092;7.006;2024-02-26T06:03:07;5.80;99.90
14908;DHT22;7545;52.092;7.006;2024-02-26T06:05:33;5.80;99.90
14908;DHT22;7545;52.092;7.006;2024-02-26T06:07:58;5.70;99.90
14908;DHT22;7545;52.092;7.006;2024-02-26T06:10:24;5.80;99.90
14908;DHT22;7545;52.092;7.006;2024-02-26T06:12:49;5.70;99.90
14908;DHT22;7545;52.092;7.006;2024-02-26T06:15:15;5.70;99.90
14908;DHT22;7545;52.092;7.006;2024-02-26T06:17:40;5.70;99.90
14908;DHT22;7545;52.092;7.006;2024-02-26T06:20:06;5.70;99.90
14908;DHT22;7545;52.092;7.006;2024-02-26T06:22:37;5.70;99.90
14908;DHT22;7545;52.092;7.006;2024-02-26T06:25:02;5.70;99.90
14908;DHT22;7545;52.092;7.006;2024-02-26T06:27:28;5.70;99.90
14908;DHT22;7545;52.092;7.006;2024-02-26T06:29:54;5.70;99.90
14908;DHT22;7545;52.092;7.006;2024-02-26T06:32:19;5.70;99.90
14908;DHT22;7545;52.092;7.006;2024-02-26T06:34:45;5.80;99.90
14908;DHT22;7545;52.092;7.006;2024-02-26T06:37:10;5.80;99.90
14908;DHT22;7545;52.092;7.006;2024-02-26T06:39:36;5.80;99.90
14908;DHT22;7545;52.092;7.006;2024-02-26T06:42:01;5.80;99.90
14908;DHT22;7545;52.092;7.006;2024-02-26T06:44:27;5.80;99.90
14908;DHT22;7545;52.092;7.006;2024-02-26T06:46:58;5.80;99.90
14908;DHT22;7545;52.092;7.006;2024-02-26T06:49:24;5.90;99.90
14908;DHT22;7545;52.092;7.006;2024-02-26T06:51:50;5.80;99.90
14908;DHT22;7545;52.092;7.006;2024-02-26T06:54:15;5.80;99.90
14908;DHT22;7545;52.092;7.006;2024-02-26T06:56:41;5.90;99.90
14908;DHT22;7545;52.092;7.006;2024-02-26T06:59:06;5.80;99.90
14908;DHT22;7545;52.092;7.006;2024-02-26T07:01:32;5.90;99.90
14908;DHT22;7545;52.092;7.006;2024-02-26T07:03:57;5.90;99.90
14908;DHT22;7545;52.092;7.006;2024-02-26T07:06:23;5.90;99.90
14908;DHT22;7545;52.092;7.006;2024-02-26T07:08:48;5.90;99.90
14908;DHT22;7545;52.092;7.006;2024-02-26T07:11:14;5.90;99.90
14908;DHT22;7545;52.092;7.006;2024-02-26T07:13:39;6.00;99.90
14908;DHT22;7545;52.092;7.006;2024-02-26T07:16:05;5.90;99.90
14908;DHT22;7545;52.092;7.006;2024-02-26T07:18:31;6.00;99.90
14908;DHT22;7545;52.092;7.006;2024-02-26T07:20:56;6.00;99.90
14908;DHT22;7545;52.092;7.006;2024-02-26T07:23:22;6.00;99.90
14908;DHT22;7545;52.092;7.006;2024-02-26T07:25:47;6.00;99.90
14908;DHT22;7545;52.092;7.006;2024-02-26T07:28:15;6.00;99.90
14908;DHT22;7545;52.092;7.006;2024-02-26T07:30:41;6.00;99.90
14908;DHT22;7545;52.092;7.006;2024-02-26T07:33:06;6.00;99.90
14908;DHT22;7545;52.092;7.006;2024-02-26T07:35:32;6.00;99.90
14908;DHT22;7545;52.092;7.006;2024-02-26T07:37:59;6.00;99.90
14908;DHT22;7545;52.092;7.006;2024-02-26T07:40:24;6.10;99.90
14908;DHT22;7545;52.092;7.006;2024-02-26T07:42:50;6.10;99.90
14908;DHT22;7545;52.092;7.006;2024-02-26T07:45:16;6.10;99.90
14908;DHT22;7545;52.092;7.006;2024-02-26T07:47:45;6.10;99.90
14908;DHT22;7545;52.092;7.006;2024-02-26T07:50:11;6.10;99.90
14908;DHT22;7545;52.092;7.006;2024-02-26T07:52:37;6.10;99.90
14908;DHT22;7545;52.092;7.006;2024-02-26T07:55:03;6.10;99.90
14908;DHT22;7545;52.092;7.006;2024-02-26T07:57:28;6.10;99.90
14908;DHT22;7545;52.092;7.006;2024-02-26T07:59:54;6.10;99.90
14908;DHT22;7545;52.092;7.006;2024-02-26T08:02:21;6.10;99.90
14908;DHT22;7545;52.092;7.006;2024-02-26T08:04:47;6.10;99.90
14908;DHT22;7545;52.092;7.006;2024-02-26T08:07:13;6.20;99.90
14908;DHT22;7545;52.092;7.006;2024-02-26T08:09:38;6.20;99.90
14908;DHT22;7545;52.092;7.006;2024-02-26T08:12:04;6.20;99.90
14908;DHT22;7545;52.092;7.006;2024-02-26T08:14:30;6.20;99.90
14908;DHT22;7545;52.092;7.006;2024-02-26T08:16:58;6.20;99.90
14908;DHT22;7545;52.092;7.006;2024-02-26T08:19:24;6.20;99.90
14908;DHT22;7545;52.092;7.006;2024-02-26T08:21:50;6.20;99.90
14908;DHT22;7545;52.092;7.006;2024-02-26T08:24:15;6.30;99.90
14908;DHT22;7545;52.092;7.006;2024-02-26T08:26:41;6.30;99.90
14908;DHT22;7545;52.092;7.006;2024-02-26T08:29:06;6.30;99.90
14908;DHT22;7545;52.092;7.006;2024-02-26T08:31:32;6.30;99.90
14908;DHT22;7545;52.092;7.006;2024-02-26T08:33:57;6.30;99.90
14908;DHT22;7545;52.092;7.006;2024-02-26T08:36:24;6.40;99.90
14908;DHT22;7545;52.092;7.006;2024-02-26T08:38:50;6.30;99.90
14908;DHT22;7545;52.092;7.006;2024-02-26T08:41:15;6.30;99.90
14908;DHT22;7545;52.092;7.006;2024-02-26T08:43:41;6.30;99.90
14908;DHT22;7545;52.092;7.006;2024-02-26T08:46:09;6.40;99.90
14908;DHT22;7545;52.092;7.006;2024-02-26T08:48:36;6.30;99.90
14908;DHT22;7545;52.092;7.006;2024-02-26T08:51:05;6.40;99.90
14908;DHT22;7545;52.092;7.006;2024-02-26T08:53:31;6.40;99.90
14908;DHT22;7545;52.092;7.006;2024-02-26T08:55:57;6.40;99.90
14908;DHT22;7545;52.092;7.006;2024-02-26T08:58:23;6.40;99.90
14908;DHT22;7545;52.092;7.006;2024-02-26T09:00:48;6.40;99.90
14908;DHT22;7545;52.092;7.006;2024-02-26T09:03:14;6.40;99.90
14908;DHT22;7545;52.092;7.006;2024-02-26T09:05:39;6.50;99.90
14908;DHT22;7545;52.092;7.006;2024-02-26T09:08:05;6.50;99.90
14908;DHT22;7545;52.092;7.006;2024-02-26T09:10:31;6.50;99.90
14908;DHT22;7545;52.092;7.006;2024-02-26T09:12:58;6.50;99.90
14908;DHT22;7545;52.092;7.006;2024-02-26T09:15:24;6.50;99.90
14908;DHT22;7545;52.092;7.006;2024-02-26T09:17:49;6.50;99.90
14908;DHT22;7545;52.092;7.006;2024-02-26T09:20:16;6.50;99.90
14908;DHT22;7545;52.092;7.006;2024-02-26T09:22:45;6.50;99.90
14908;DHT22;7545;52.092;7.006;2024-02-26T09:25:11;6.50;99.90
14908;DHT22;7545;52.092;7.006;2024-02-26T09:27:37;6.50;99.90
14908;DHT22;7545;52.092;7.006;2024-02-26T09:30:03;6.60;99.90
14908;DHT22;7545;52.092;7.006;2024-02-26T09:32:28;6.60;99.90
14908;DHT22;7545;52.092;7.006;2024-02-26T09:34:55;6.60;99.90
14908;DHT22;7545;52.092;7.006;2024-02-26T09:37:21;6.60;99.90
14908;DHT22;7545;52.092;7.006;2024-02-26T09:39:46;6.70;99.90
14908;DHT22;7545;52.092;7.006;2024-02-26T09:42:13;6.70;99.90
14908;DHT22;7545;52.092;7.006;2024-02-26T09:44:40;6.70;99.90
14908;DHT22;7545;52.092;7.006;2024-02-26T09:47:09;6.70;99.90
14908;DHT22;7545;52.092;7.006;2024-02-26T09:49:36;6.80;99.90
14908;DHT22;7545;52.092;7.006;2024-02-26T09:52:04;6.80;99.90
14908;DHT22;7545;52.092;7.006;2024-02-26T09:54:31;6.80;99.90
14908;DHT22;7545;52.092;7.006;2024-02-26T09:57:00;6.90;99.90
14908;DHT22;7545;52.092;7.006;2024-02-26T09:59:28;6.90;99.90
14908;DHT22;7545;52.092;7.006;2024-02-26T10:01:56;6.90;99.90
14908;DHT22;7545;52.092;7.006;2024-02-26T10:04:22;6.90;99.90
14908;DHT22;7545;52.092;7.006;2024-02-26T10:06:49;7.00;99.90
14908;DHT22;7545;52.092;7.006;2024-02-26T10:09:15;7.00;99.90
14908;DHT22;7545;52.092;7.006;2024-02-26T10:11:41;7.00;99.90
14908;DHT22;7545;52.092;7.006;2024-02-26T10:14:08;7.00;99.90
14908;DHT22;7545;52.092;7.006;2024-02-26T10:16:34;7.00;99.90
14908;DHT22;7545;52.092;7.006;2024-02-26T10:19:00;7.00;99.90
14908;DHT22;7545;52.092;7.006;2024-02-26T10:21:26;7.00;99.90
14908;DHT22;7545;52.092;7.006;2024-02-26T10:23:52;7.00;99.90
14908;DHT22;7545;52.092;7.006;2024-02-26T10:26:18;7.00;99.90
14908;DHT22;7545;52.092;7.006;2024-02-26T10:28:45;7.00;99.90
14908;DHT22;7545;52.092;7.006;2024-02-26T10:31:11;7.00;99.90
14908;DHT22;7545;52.092;7.006;2024-02-26T10:33:39;7.00;99.90
14908;DHT22;7545;52.092;7.006;2024-02-26T10:36:05;7.00;99.90
14908;DHT22;7545;52.092;7.006;2024-02-26T10:38:36;7.00;99.90
14908;DHT22;7545;52.092;7.006;2024-02-26T10:41:02;7.00;99.90
14908;DHT22;7545;52.092;7.006;2024-02-26T10:43:28;7.00;99.90
14908;DHT22;7545;52.092;7.006;2024-02-26T10:45:57;6.90;99.90
14908;DHT22;7545;52.092;7.006;2024-02-26T10:48:23;7.00;99.90
14908;DHT22;7545;52.092;7.006;2024-02-26T10:50:49;7.00;99.90
14908;DHT22;7545;52.092;7.006;2024-02-26T10:53:28;6.90;99.90
14908;DHT22;7545;52.092;7.006;2024-02-26T10:56:01;6.90;99.90
14908;DHT22;7545;52.092;7.006;2024-02-26T10:58:28;7.00;99.90
14908;DHT22;7545;52.092;7.006;2024-02-26T11:00:56;7.00;99.90
14908;DHT22;7545;52.092;7.006;2024-02-26T11:03:22;6.90;99.90
14908;DHT22;7545;52.092;7.006;2024-02-26T11:05:49;6.90;99.90
14908;DHT22;7545;52.092;7.006;2024-02-26T11:08:19;6.90;99.90
14908;DHT22;7545;52.092;7.006;2024-02-26T11:10:47;6.90;99.90
14908;DHT22;7545;52.092;7.006;2024-02-26T11:13:15;6.90;99.90
14908;DHT22;7545;52.092;7.006;2024-02-26T11:15:45;7.00;99.90
14908;DHT22;7545;52.092;7.006;2024-02-26T11:18:14;6.90;99.90
14908;DHT22;7545;52.092;7.006;2024-02-26T11:20:40;6.90;99.90
14908;DHT22;7545;52.092;7.006;2024-02-26T11:23:07;6.90;99.90
14908;DHT22;7545;52.092;7.006;2024-02-26T11:25:33;6.90;99.90
14908;DHT22;7545;52.092;7.006;2024-02-26T11:28:03;6.90;99.90
14908;DHT22;7545;52.092;7.006;2024-02-26T11:30:31;6.90;99.90
14908;DHT22;7545;52.092;7.006;2024-02-26T11:32:58;6.90;99.90
14908;DHT22;7545;52.092;7.006;2024-02-26T11:35:24;7.00;99.90
14908;DHT22;7545;52.092;7.006;2024-02-26T11:37:56;6.90;99.90
14908;DHT22;7545;52.092;7.006;2024-02-26T11:40:24;7.00;99.90
14908;DHT22;7545;52.092;7.006;2024-02-26T11:42:50;7.00;99.90
14908;DHT22;7545;52.092;7.006;2024-02-26T11:48:12;7.00;99.90
14908;DHT22;7545;52.092;7.006;2024-02-26T11:55:44;7.00;99.90
14908;DHT22;7545;52.092;7.006;2024-02-26T11:58:10;7.00;99.90
14908;DHT22;7545;52.092;7.006;2024-02-26T12:00:36;7.00;99.90
14908;DHT22;7545;52.092;7.006;2024-02-26T12:03:02;7.00;99.90
14908;DHT22;7545;52.092;7.006;2024-02-26T12:05:32;7.00;99.90
14908;DHT22;7545;52.092;7.006;2024-02-26T12:08:05;7.00;99.90
14908;DHT22;7545;52.092;7.006;2024-02-26T12:10:33;7.00;99.90
14908;DHT22;7545;52.092;7.006;2024-02-26T12:13:12;7.00;99.90
14908;DHT22;7545;52.092;7.006;2024-02-26T12:15:55;7.00;99.90
14908;DHT22;7545;52.092;7.006;2024-02-26T12:18:22;7.00;99.90
14908;DHT22;7545;52.092;7.006;2024-02-26T12:21:01;6.90;99.90
14908;DHT22;7545;52.092;7.006;2024-02-26T12:23:27;7.00;99.90
14908;DHT22;7545;52.092;7.006;2024-02-26T12:25:54;7.00;99.90
14908;DHT22;7545;52.092;7.006;2024-02-26T12:28:27;7.00;99.90
14908;DHT22;7545;52.092;7.006;2024-02-26T12:30:53;7.00;99.90
14908;DHT22;7545;52.092;7.006;2024-02-26T12:33:19;7.00;99.90
14908;DHT22;7545;52.092;7.006;2024-02-26T12:35:44;7.00;99.90
14908;DHT22;7545;52.092;7.006;2024-02-26T12:38:14;7.00;99.90
14908;DHT22;7545;52.092;7.006;2024-02-26T12:40:40;7.00;99.90
14908;DHT22;7545;52.092;7.006;2024-02-26T12:43:05;7.00;99.90
14908;DHT22;7545;52.092;7.006;2024-02-26T12:45:32;7.00;99.90
14908;DHT22;7545;52.092;7.006;2024-02-26T12:47:59;7.00;99.90
14908;DHT22;7545;52.092;7.006;2024-02-26T12:50:24;6.90;99.90
14908;DHT22;7545;52.092;7.006;2024-02-26T12:52:51;7.00;99.90
14908;DHT22;7545;52.092;7.006;2024-02-26T12:55:18;7.00;99.90
14908;DHT22;7545;52.092;7.006;2024-02-26T12:57:45;7.00;99.90
14908;DHT22;7545;52.092;7.006;2024-02-26T13:00:25;7.00;99.90
14908;DHT22;7545;52.092;7.006;2024-02-26T13:02:52;7.00;99.90
14908;DHT22;7545;52.092;7.006;2024-02-26T13:05:20;7.00;99.90
14908;DHT22;7545;52.092;7.006;2024-02-26T13:07:46;7.00;99.90
14908;DHT22;7545;52.092;7.006;2024-02-26T13:10:16;7.00;99.90
14908;DHT22;7545;52.092;7.006;2024-02-26T13:12:48;7.00;99.90
14908;DHT22;7545;52.092;7.006;2024-02-26T13:15:16;7.00;99.90
14908;DHT22;7545;52.092;7.006;2024-02-26T13:17:46;7.00;99.90
14908;DHT22;7545;52.092;7.006;2024-02-26T13:20:12;7.00;99.90
14908;DHT22;7545;52.092;7.006;2024-02-26T13:22:39;7.00;99.90
14908;DHT22;7545;52.092;7.006;2024-02-26T13:25:05;7.00;99.90
14908;DHT22;7545;52.092;7.006;2024-02-26T13:27:33;7.00;99.90
14908;DHT22;7545;52.092;7.006;2024-02-26T13:30:03;7.00;99.90
14908;DHT22;7545;52.092;7.006;2024-02-26T13:32:32;7.00;99.90
14908;DHT22;7545;52.092;7.006;2024-02-26T13:35:11;7.00;99.90
14908;DHT22;7545;52.092;7.006;2024-02-26T13:37:38;7.00;99.90
14908;DHT22;7545;52.092;7.006;2024-02-26T13:40:09;7.00;99.90
14908;DHT22;7545;52.092;7.006;2024-02-26T13:42:35;7.00;99.90
14908;DHT22;7545;52.092;7.006;2024-02-26T13:45:01;7.00;99.90
14908;DHT22;7545;52.092;7.006;2024-02-26T13:47:27;7.00;99.90
14908;DHT22;7545;52.092;7.006;2024-02-26T13:49:53;7.00;99.90
14908;DHT22;7545;52.092;7.006;2024-02-26T13:52:19;7.00;99.90
14908;DHT22;7545;52.092;7.006;2024-02-26T13:54:46;7.00;99.90
14908;DHT22;7545;52.092;7.006;2024-02-26T13:57:11;7.00;99.90
14908;DHT22;7545;52.092;7.006;2024-02-26T13:59:37;7.00;99.90
14908;DHT22;7545;52.092;7.006;2024-02-26T14:02:02;7.00;99.90
14908;DHT22;7545;52.092;7.006;2024-02-26T14:04:29;7.00;99.90
14908;DHT22;7545;52.092;7.006;2024-02-26T14:06:54;7.00;99.90
14908;DHT22;7545;52.092;7.006;2024-02-26T14:09:20;7.00;99.90
14908;DHT22;7545;52.092;7.006;2024-02-26T14:11:45;7.00;99.90
14908;DHT22;7545;52.092;7.006;2024-02-26T14:14:11;7.00;99.90
14908;DHT22;7545;52.092;7.006;2024-02-26T14:16:37;7.10;99.90
14908;DHT22;7545;52.092;7.006;2024-02-26T14:19:02;7.00;99.90
14908;DHT22;7545;52.092;7.006;2024-02-26T14:21:28;7.00;99.90
14908;DHT22;7545;52.092;7.006;2024-02-26T14:23:55;7.00;99.90
14908;DHT22;7545;52.092;7.006;2024-02-26T14:26:22;7.00;99.90
14908;DHT22;7545;52.092;7.006;2024-02-26T14:28:47;7.00;99.90
14908;DHT22;7545;52.092;7.006;2024-02-26T14:31:19;7.00;99.90
14908;DHT22;7545;52.092;7.006;2024-02-26T14:33:45;7.00;99.90
14908;DHT22;7545;52.092;7.006;2024-02-26T14:36:11;7.00;99.90
14908;DHT22;7545;52.092;7.006;2024-02-26T14:38:37;7.00;99.90
14908;DHT22;7545;52.092;7.006;2024-02-26T14:41:05;7.00;99.90
14908;DHT22;7545;52.092;7.006;2024-02-26T14:43:31;7.00;99.90
14908;DHT22;7545;52.092;7.006;2024-02-26T14:45:58;6.90;99.90
14908;DHT22;7545;52.092;7.006;2024-02-26T14:48:23;6.90;99.90
14908;DHT22;7545;52.092;7.006;2024-02-26T14:50:49;7.00;99.90
14908;DHT22;7545;52.092;7.006;2024-02-26T14:53:16;7.00;99.90
14908;DHT22;7545;52.092;7.006;2024-02-26T14:55:42;6.90;99.90
14908;DHT22;7545;52.092;7.006;2024-02-26T14:58:07;6.90;99.90
14908;DHT22;7545;52.092;7.006;2024-02-26T15:00:34;7.00;99.90
14908;DHT22;7545;52.092;7.006;2024-02-26T15:03:00;6.90;99.90
14908;DHT22;7545;52.092;7.006;2024-02-26T15:05:26;7.00;99.90
14908;DHT22;7545;52.092;7.006;2024-02-26T15:07:51;6.90;99.90
14908;DHT22;7545;52.092;7.006;2024-02-26T15:10:17;7.00;99.90
14908;DHT22;7545;52.092;7.006;2024-02-26T15:12:44;6.90;99.90
14908;DHT22;7545;52.092;7.006;2024-02-26T15:15:09;6.90;99.90
14908;DHT22;7545;52.092;7.006;2024-02-26T15:17:35;6.90;99.90
14908;DHT22;7545;52.092;7.006;2024-02-26T15:20:01;7.00;99.90
14908;DHT22;7545;52.092;7.006;2024-02-26T15:22:27;7.00;99.90
14908;DHT22;7545;52.092;7.006;2024-02-26T15:24:53;7.00;99.90
14908;DHT22;7545;52.092;7.006;2024-02-26T15:27:18;6.90;99.90
14908;DHT22;7545;52.092;7.006;2024-02-26T15:29:44;7.00;99.90
14908;DHT22;7545;52.092;7.006;2024-02-26T15:32:10;7.00;99.90
14908;DHT22;7545;52.092;7.006;2024-02-26T15:34:36;6.90;99.90
14908;DHT22;7545;52.092;7.006;2024-02-26T15:37:02;7.00;99.90
14908;DHT22;7545;52.092;7.006;2024-02-26T15:39:27;7.00;99.90
14908;DHT22;7545;52.092;7.006;2024-02-26T15:41:53;7.00;99.90
14908;DHT22;7545;52.092;7.006;2024-02-26T15:44:18;7.00;99.90
14908;DHT22;7545;52.092;7.006;2024-02-26T15:46:44;6.90;99.90
14908;DHT22;7545;52.092;7.006;2024-02-26T15:49:10;6.90;99.90
14908;DHT22;7545;52.092;7.006;2024-02-26T15:51:35;7.00;99.90
14908;DHT22;7545;52.092;7.006;2024-02-26T15:54:01;6.90;99.90
14908;DHT22;7545;52.092;7.006;2024-02-26T15:56:27;6.90;99.90
14908;DHT22;7545;52.092;7.006;2024-02-26T15:58:53;7.00;99.90
14908;DHT22;7545;52.092;7.006;2024-02-26T16:01:19;6.90;99.90
14908;DHT22;7545;52.092;7.006;2024-02-26T16:03:45;6.90;99.90